createdAt,value
2022-08-28T00:00:52.061Z,11.53
2022-08-28T00:01:52.041Z,11.53
2022-08-28T00:02:52.081Z,11.73
2022-08-28T00:03:52.031Z,10.14
2022-08-28T00:04:52.101Z,12.52
2022-08-28T00:05:52.004Z,11.53
2022-08-28T00:06:51.993Z,10.93
2022-08-28T00:07:51.983Z,11.93
2022-08-28T00:08:51.980Z,12.33
2022-08-28T00:09:51.985Z,13.32
2022-08-28T00:10:51.950Z,12.13
2022-08-28T00:11:51.952Z,12.33
2022-08-28T00:12:51.933Z,12.33
2022-08-28T00:13:51.923Z,12.72
2022-08-28T00:14:51.921Z,14.12
2022-08-28T00:15:51.970Z,10.54
2022-08-28T00:16:52.393Z,10.93
2022-08-28T00:17:51.881Z,10.54
2022-08-28T00:18:51.863Z,11.53
2022-08-28T00:19:51.850Z,11.13
2022-08-28T00:20:51.869Z,11.73
2022-08-28T00:21:51.833Z,12.52
2022-08-28T00:22:51.822Z,12.52
2022-08-28T00:23:51.799Z,12.72
2022-08-28T00:24:51.796Z,12.72
2022-08-28T00:25:51.782Z,14.31
2022-08-28T00:26:51.780Z,11.93
2022-08-28T00:27:51.751Z,11.93
2022-08-28T00:28:51.760Z,12.72
2022-08-28T00:29:51.763Z,12.52
2022-08-28T00:30:51.772Z,10.54
2022-08-28T00:31:51.711Z,10.93
2022-08-28T00:32:51.747Z,12.72
2022-08-28T00:33:51.691Z,12.72
2022-08-28T00:34:51.702Z,12.52
2022-08-28T00:35:51.683Z,12.92
2022-08-28T00:36:51.661Z,13.52
2022-08-28T00:37:51.649Z,13.32
2022-08-28T00:38:51.643Z,12.52
2022-08-28T00:39:51.748Z,12.92
2022-08-28T00:40:51.703Z,14.71
2022-08-28T00:41:51.601Z,12.33
2022-08-28T00:42:52.603Z,11.33
2022-08-28T00:43:51.582Z,11.93
2022-08-28T00:44:51.571Z,12.92
2022-08-28T00:45:51.572Z,11.73
2022-08-28T00:46:51.575Z,12.52
2022-08-28T00:47:51.542Z,12.52
2022-08-28T00:48:51.536Z,12.33
2022-08-28T00:49:51.542Z,11.93
2022-08-28T00:50:51.525Z,11.73
2022-08-28T00:51:51.494Z,12.13
2022-08-28T00:52:51.541Z,12.33
2022-08-28T00:53:51.471Z,12.72
2022-08-28T00:54:59.463Z,12.52
2022-08-28T00:55:52.461Z,13.52
2022-08-28T00:56:51.441Z,12.92
2022-08-28T00:57:51.421Z,12.13
2022-08-28T00:58:51.420Z,11.13
2022-08-28T00:59:51.422Z,11.53
2022-08-28T01:00:51.413Z,11.73
2022-08-28T01:01:51.439Z,12.52
2022-08-28T01:02:51.440Z,12.92
2022-08-28T01:03:51.362Z,12.52
2022-08-28T01:04:51.351Z,12.13
2022-08-28T01:05:51.373Z,12.72
2022-08-28T01:06:51.345Z,12.52
2022-08-28T01:07:51.322Z,12.92
2022-08-28T01:08:51.311Z,12.33
2022-08-28T01:09:51.301Z,12.72
2022-08-28T01:10:51.301Z,12.92
2022-08-28T01:11:51.274Z,12.72
2022-08-28T01:12:51.272Z,13.52
2022-08-28T01:13:51.281Z,12.72
2022-08-28T01:14:51.249Z,13.72
2022-08-28T01:15:51.358Z,11.73
2022-08-28T01:16:51.222Z,12.72
2022-08-28T01:17:51.210Z,12.33
2022-08-28T01:18:51.222Z,11.33
2022-08-28T01:19:51.193Z,11.93
2022-08-28T01:20:51.192Z,11.13
2022-08-28T01:21:51.531Z,11.53
2022-08-28T01:22:51.161Z,11.33
2022-08-28T01:23:51.160Z,10.54
2022-08-28T01:24:51.193Z,11.33
2022-08-28T01:25:51.192Z,11.13
2022-08-28T01:26:51.176Z,11.53
2022-08-28T01:27:51.143Z,12.13
2022-08-28T01:28:51.163Z,12.33
2022-08-28T01:29:51.151Z,10.54
2022-08-28T01:30:51.158Z,13.12
2022-08-28T01:31:51.112Z,12.13
2022-08-28T01:32:51.093Z,11.73
2022-08-28T01:33:51.083Z,11.33
2022-08-28T01:34:51.091Z,11.73
2022-08-28T01:35:51.083Z,12.13
2022-08-28T01:36:51.058Z,11.53
2022-08-28T01:37:51.045Z,11.93
2022-08-28T01:38:51.022Z,11.53
2022-08-28T01:39:51.031Z,11.53
2022-08-28T01:40:51.043Z,11.93
2022-08-28T01:41:50.984Z,11.33
2022-08-28T01:42:50.972Z,11.93
2022-08-28T01:43:50.984Z,12.13
2022-08-28T01:44:50.980Z,11.73
2022-08-28T01:45:50.997Z,11.33
2022-08-28T01:46:50.963Z,11.53
2022-08-28T01:47:51.324Z,11.93
2022-08-28T01:48:50.924Z,12.33
2022-08-28T01:49:50.903Z,11.73
2022-08-28T01:50:50.921Z,12.13
2022-08-28T01:51:51.274Z,12.13
2022-08-28T01:52:50.939Z,12.52
2022-08-28T01:53:50.854Z,12.13
2022-08-28T01:54:50.873Z,12.33
2022-08-28T01:55:50.843Z,12.72
2022-08-28T01:56:50.813Z,13.12
2022-08-28T01:57:50.784Z,11.93
2022-08-28T01:58:50.782Z,12.33
2022-08-28T01:59:50.775Z,11.93
2022-08-28T02:00:50.755Z,12.72
2022-08-28T02:01:50.943Z,12.52
2022-08-28T02:02:50.732Z,11.73
2022-08-28T02:03:50.745Z,11.73
2022-08-28T02:04:50.760Z,12.52
2022-08-28T02:05:50.715Z,13.72
2022-08-28T02:06:50.693Z,12.13
2022-08-28T02:07:50.682Z,12.52
2022-08-28T02:08:50.663Z,12.33
2022-08-28T02:09:50.683Z,12.13
2022-08-28T02:10:50.644Z,11.93
2022-08-28T02:11:50.644Z,12.52
2022-08-28T02:12:50.643Z,11.73
2022-08-28T02:13:50.807Z,11.53
2022-08-28T02:14:50.603Z,10.54
2022-08-28T02:15:50.618Z,11.13
2022-08-28T02:16:50.602Z,10.54
2022-08-28T02:17:50.573Z,11.13
2022-08-28T02:18:50.570Z,10.93
2022-08-28T02:19:50.540Z,10.93
2022-08-28T02:20:50.533Z,10.74
2022-08-28T02:21:50.553Z,11.93
2022-08-28T02:22:50.523Z,11.73
2022-08-28T02:23:50.504Z,10.93
2022-08-28T02:24:50.483Z,11.73
2022-08-28T02:25:50.921Z,10.93
2022-08-28T02:26:50.483Z,11.53
2022-08-28T02:27:50.455Z,11.53
2022-08-28T02:28:50.479Z,11.73
2022-08-28T02:29:50.443Z,11.13
2022-08-28T02:30:50.550Z,11.33
2022-08-28T02:31:50.443Z,12.33
2022-08-28T02:32:50.412Z,11.53
2022-08-28T02:33:50.383Z,11.33
2022-08-28T02:34:50.373Z,10.93
2022-08-28T02:35:50.370Z,11.33
2022-08-28T02:36:50.385Z,12.13
2022-08-28T02:37:50.350Z,12.92
2022-08-28T02:38:52.960Z,11.73
2022-08-28T02:39:51.520Z,11.93
2022-08-28T02:40:50.312Z,12.52
2022-08-28T02:41:50.331Z,11.93
2022-08-28T02:42:50.314Z,12.13
2022-08-28T02:43:50.285Z,12.13
2022-08-28T02:44:50.274Z,12.72
2022-08-28T02:45:50.355Z,12.13
2022-08-28T02:46:50.254Z,10.34
2022-08-28T02:47:50.242Z,12.72
2022-08-28T02:48:50.223Z,12.52
2022-08-28T02:49:50.207Z,12.72
2022-08-28T02:50:50.193Z,12.52
2022-08-28T02:51:50.234Z,12.72
2022-08-28T02:52:50.185Z,12.52
2022-08-28T02:53:50.173Z,11.73
2022-08-28T02:54:50.193Z,12.13
2022-08-28T02:55:50.155Z,11.93
2022-08-28T02:56:50.141Z,12.52
2022-08-28T02:57:50.124Z,11.93
2022-08-28T02:58:50.115Z,11.13
2022-08-28T02:59:50.093Z,11.73
2022-08-28T03:00:50.083Z,10.74
2022-08-28T03:01:50.140Z,11.93
2022-08-28T03:02:50.155Z,12.13
2022-08-28T03:03:50.051Z,11.93
2022-08-28T03:04:50.024Z,11.33
2022-08-28T03:05:50.052Z,11.73
2022-08-28T03:06:50.036Z,11.73
2022-08-28T03:07:50.012Z,11.53
2022-08-28T03:08:49.982Z,12.72
2022-08-28T03:09:49.982Z,12.13
2022-08-28T03:10:49.964Z,11.53
2022-08-28T03:11:49.993Z,11.13
2022-08-28T03:12:49.941Z,11.53
2022-08-28T03:13:49.944Z,11.93
2022-08-28T03:14:49.941Z,11.33
2022-08-28T03:15:51.943Z,10.93
2022-08-28T03:16:50.979Z,11.93
2022-08-28T03:17:49.912Z,11.53
2022-08-28T03:18:49.914Z,11.53
2022-08-28T03:19:49.873Z,11.53
2022-08-28T03:20:49.854Z,11.73
2022-08-28T03:21:49.862Z,6.76
2022-08-28T03:22:49.843Z,11.73
2022-08-28T03:23:49.824Z,11.53
2022-08-28T03:24:49.823Z,11.13
2022-08-28T03:25:49.803Z,11.33
2022-08-28T03:26:49.795Z,11.93
2022-08-28T03:27:49.785Z,12.72
2022-08-28T03:28:49.773Z,11.73
2022-08-28T03:29:49.753Z,12.33
2022-08-28T03:30:49.831Z,12.13
2022-08-28T03:31:49.734Z,11.73
2022-08-28T03:32:49.734Z,10.93
2022-08-28T03:33:49.736Z,12.13
2022-08-28T03:34:49.694Z,11.93
2022-08-28T03:35:49.703Z,11.93
2022-08-28T03:36:49.847Z,11.93
2022-08-28T03:37:49.683Z,12.52
2022-08-28T03:38:49.655Z,11.53
2022-08-28T03:39:49.644Z,11.33
2022-08-28T03:40:49.634Z,11.93
2022-08-28T03:41:49.623Z,11.93
2022-08-28T03:42:53.124Z,12.13
2022-08-28T03:43:49.633Z,12.52
2022-08-28T03:44:49.593Z,12.33
2022-08-28T03:45:49.624Z,11.73
2022-08-28T03:46:49.615Z,12.72
2022-08-28T03:47:49.581Z,12.13
2022-08-28T03:48:49.554Z,12.52
2022-08-28T03:49:49.542Z,12.92
2022-08-28T03:50:49.524Z,12.72
2022-08-28T03:51:49.546Z,13.92
2022-08-28T03:52:49.534Z,12.72
2022-08-28T03:53:49.514Z,12.33
2022-08-28T03:54:49.494Z,12.52
2022-08-28T03:55:49.504Z,13.12
2022-08-28T03:56:49.463Z,13.52
2022-08-28T03:57:49.464Z,13.12
2022-08-28T03:58:49.434Z,12.92
2022-08-28T03:59:49.434Z,12.92
2022-08-28T04:00:49.413Z,12.92
2022-08-28T04:01:49.443Z,11.13
2022-08-28T04:02:49.411Z,12.33
2022-08-28T04:03:49.383Z,12.52
2022-08-28T04:04:49.383Z,11.53
2022-08-28T04:05:49.396Z,11.33
2022-08-28T04:06:49.386Z,10.34
2022-08-28T04:07:49.354Z,10.34
2022-08-28T04:08:49.334Z,10.54
2022-08-28T04:09:49.324Z,10.14
2022-08-28T04:10:49.334Z,10.34
2022-08-28T04:11:49.310Z,10.14
2022-08-28T04:12:49.293Z,9.94
2022-08-28T04:13:49.274Z,10.14
2022-08-28T04:14:49.263Z,10.54
2022-08-28T04:15:49.273Z,10.14
2022-08-28T04:16:49.279Z,11.53
2022-08-28T04:17:49.244Z,10.34
2022-08-28T04:18:49.237Z,10.54
2022-08-28T04:19:49.234Z,10.54
2022-08-28T04:20:49.195Z,9.54
2022-08-28T04:21:49.193Z,10.54
2022-08-28T04:22:49.196Z,11.13
2022-08-28T04:23:50.177Z,10.54
2022-08-28T04:24:49.153Z,10.74
2022-08-28T04:25:49.144Z,10.14
2022-08-28T04:26:49.137Z,10.54
2022-08-28T04:27:49.162Z,10.34
2022-08-28T04:28:49.117Z,10.74
2022-08-28T04:29:49.134Z,10.74
2022-08-28T04:30:49.084Z,10.34
2022-08-28T04:31:49.144Z,9.94
2022-08-28T04:32:49.082Z,10.14
2022-08-28T04:33:49.054Z,9.94
2022-08-28T04:34:49.054Z,9.34
2022-08-28T04:35:49.038Z,9.94
2022-08-28T04:36:49.031Z,10.14
2022-08-28T04:37:49.038Z,10.34
2022-08-28T04:38:49.003Z,9.94
2022-08-28T04:39:49.008Z,10.14
2022-08-28T04:40:48.988Z,10.74
2022-08-28T04:41:48.975Z,10.14
2022-08-28T04:42:49.004Z,10.54
2022-08-28T04:43:48.965Z,10.34
2022-08-28T04:44:48.950Z,10.14
2022-08-28T04:45:49.004Z,10.54
2022-08-28T04:46:48.923Z,10.74
2022-08-28T04:47:48.914Z,10.54
2022-08-28T04:48:48.906Z,10.14
2022-08-28T04:49:48.895Z,11.33
2022-08-28T04:50:48.882Z,10.54
2022-08-28T04:51:48.865Z,10.54
2022-08-28T04:52:48.854Z,10.14
2022-08-28T04:53:48.863Z,10.34
2022-08-28T04:54:48.894Z,10.74
2022-08-28T04:55:53.685Z,10.54
2022-08-28T04:56:49.859Z,10.34
2022-08-28T04:57:48.903Z,11.33
2022-08-28T04:58:48.863Z,10.54
2022-08-28T04:59:48.866Z,11.33
2022-08-28T05:00:48.857Z,10.14
2022-08-28T05:01:48.853Z,10.54
2022-08-28T05:02:48.802Z,11.73
2022-08-28T05:03:48.805Z,12.13
2022-08-28T05:04:48.774Z,11.13
2022-08-28T05:05:48.793Z,11.13
2022-08-28T05:06:48.745Z,11.53
2022-08-28T05:07:48.754Z,11.93
2022-08-28T05:08:48.762Z,10.93
2022-08-28T05:09:48.743Z,11.73
2022-08-28T05:10:48.727Z,12.33
2022-08-28T05:11:48.715Z,12.13
2022-08-28T05:12:48.683Z,12.13
2022-08-28T05:13:48.716Z,12.33
2022-08-28T05:14:48.639Z,12.13
2022-08-28T05:15:48.609Z,12.33
2022-08-28T05:16:48.584Z,11.93
2022-08-28T05:17:48.594Z,13.72
2022-08-28T05:18:48.614Z,12.72
2022-08-28T05:19:48.573Z,11.93
2022-08-28T05:20:48.542Z,11.33
2022-08-28T05:21:48.534Z,11.73
2022-08-28T05:22:48.528Z,11.93
2022-08-28T05:23:48.527Z,11.53
2022-08-28T05:24:48.501Z,11.13
2022-08-28T05:25:48.492Z,13.32
2022-08-28T05:26:48.757Z,12.72
2022-08-28T05:27:48.472Z,11.53
2022-08-28T05:28:48.462Z,11.73
2022-08-28T05:29:48.456Z,10.74
2022-08-28T05:30:48.453Z,11.13
2022-08-28T05:31:48.530Z,10.34
2022-08-28T05:32:48.414Z,10.14
2022-08-28T05:33:48.423Z,10.54
2022-08-28T05:34:48.396Z,11.13
2022-08-28T05:35:48.385Z,11.33
2022-08-28T05:36:48.373Z,10.93
2022-08-28T05:37:48.365Z,10.14
2022-08-28T05:38:48.354Z,11.93
2022-08-28T05:39:48.351Z,11.13
2022-08-28T05:40:48.342Z,10.93
2022-08-28T05:41:48.333Z,11.13
2022-08-28T05:42:48.312Z,11.53
2022-08-28T05:43:48.319Z,10.74
2022-08-28T05:44:48.302Z,11.73
2022-08-28T05:45:49.317Z,11.13
2022-08-28T05:46:48.272Z,11.33
2022-08-28T05:47:48.254Z,10.93
2022-08-28T05:48:48.252Z,10.14
2022-08-28T05:49:48.232Z,11.33
2022-08-28T05:50:48.273Z,11.53
2022-08-28T05:51:48.237Z,11.53
2022-08-28T05:52:48.200Z,11.13
2022-08-28T05:53:48.193Z,11.33
2022-08-28T05:54:48.210Z,10.74
2022-08-28T05:55:51.871Z,11.33
2022-08-28T05:56:48.157Z,11.33
2022-08-28T05:57:48.150Z,10.93
2022-08-28T05:58:48.147Z,10.93
2022-08-28T05:59:48.123Z,10.93
2022-08-28T06:00:48.121Z,11.33
2022-08-28T06:01:48.140Z,11.13
2022-08-28T06:02:48.082Z,11.93
2022-08-28T06:03:48.126Z,11.13
2022-08-28T06:04:48.074Z,11.53
2022-08-28T06:05:48.063Z,10.74
2022-08-28T06:06:48.033Z,11.93
2022-08-28T06:07:48.064Z,10.93
2022-08-28T06:08:58.717Z,10.74
2022-08-28T06:09:49.013Z,10.93
2022-08-28T06:10:47.993Z,11.73
2022-08-28T06:11:47.983Z,10.93
2022-08-28T06:12:47.972Z,10.93
2022-08-28T06:13:47.974Z,10.54
2022-08-28T06:14:47.953Z,10.54
2022-08-28T06:15:47.972Z,8.75
2022-08-28T06:16:47.967Z,10.93
2022-08-28T06:17:47.924Z,9.34
2022-08-28T06:18:47.913Z,11.13
2022-08-28T06:19:47.893Z,10.54
2022-08-28T06:20:47.901Z,10.93
2022-08-28T06:21:47.901Z,11.73
2022-08-28T06:22:47.873Z,11.33
2022-08-28T06:23:47.871Z,10.93
2022-08-28T06:24:47.844Z,10.93
2022-08-28T06:25:47.832Z,10.74
2022-08-28T06:26:47.815Z,10.93
2022-08-28T06:27:47.824Z,10.54
2022-08-28T06:28:47.803Z,10.54
2022-08-28T06:29:47.783Z,10.74
2022-08-28T06:31:08.918Z,10.54
2022-08-28T06:31:48.832Z,10.74
2022-08-28T06:32:47.754Z,11.13
2022-08-28T06:33:47.795Z,10.74
2022-08-28T06:34:47.733Z,10.34
2022-08-28T06:35:47.724Z,10.74
2022-08-28T06:36:51.822Z,11.13
2022-08-28T06:37:48.704Z,10.54
2022-08-28T06:38:47.706Z,10.54
2022-08-28T06:39:47.683Z,10.74
2022-08-28T06:40:47.687Z,9.94
2022-08-28T06:41:47.664Z,10.14
2022-08-28T06:42:47.663Z,10.54
2022-08-28T06:43:47.682Z,10.34
2022-08-28T06:44:47.662Z,10.14
2022-08-28T06:45:47.827Z,9.94
2022-08-28T06:46:47.663Z,9.54
2022-08-28T06:47:47.719Z,9.34
2022-08-28T06:48:47.623Z,10.74
2022-08-28T06:49:47.605Z,10.34
2022-08-28T06:50:47.598Z,11.13
2022-08-28T06:51:47.590Z,10.54
2022-08-28T06:52:47.553Z,10.34
2022-08-28T06:53:47.593Z,10.54
2022-08-28T06:54:55.396Z,10.14
2022-08-28T06:55:48.541Z,10.54
2022-08-28T06:56:47.515Z,10.74
2022-08-28T06:57:47.502Z,10.34
2022-08-28T06:58:50.123Z,10.34
2022-08-28T06:59:47.474Z,10.54
2022-08-28T07:00:48.824Z,10.93
2022-08-28T07:01:47.657Z,10.54
2022-08-28T07:02:47.554Z,9.94
2022-08-28T07:03:47.435Z,10.14
2022-08-28T07:04:47.579Z,10.34
2022-08-28T07:05:47.617Z,10.93
2022-08-28T07:06:52.802Z,10.14
2022-08-28T07:07:48.394Z,10.34
2022-08-28T07:08:47.423Z,9.94
2022-08-28T07:09:47.423Z,9.15
2022-08-28T07:10:47.354Z,10.34
2022-08-28T07:11:47.323Z,10.34
2022-08-28T07:12:47.326Z,10.34
2022-08-28T07:13:47.328Z,10.34
2022-08-28T07:14:47.377Z,9.94
2022-08-28T07:15:47.327Z,10.54
2022-08-28T07:16:47.286Z,9.34
2022-08-28T07:17:47.264Z,10.93
2022-08-28T07:18:47.273Z,9.74
2022-08-28T07:19:47.361Z,9.94
2022-08-28T07:20:47.227Z,10.14
2022-08-28T07:21:47.216Z,9.94
2022-08-28T07:22:47.269Z,10.34
2022-08-28T07:23:48.185Z,8.95
2022-08-28T07:24:47.215Z,9.74
2022-08-28T07:25:47.158Z,10.14
2022-08-28T07:26:47.220Z,9.94
2022-08-28T07:27:47.187Z,10.14
2022-08-28T07:28:47.136Z,9.74
2022-08-28T07:29:47.144Z,9.74
2022-08-28T07:30:47.137Z,8.75
2022-08-28T07:31:47.101Z,8.35
2022-08-28T07:32:47.117Z,9.94
2022-08-28T07:33:47.089Z,9.94
2022-08-28T07:34:48.074Z,9.54
2022-08-28T07:35:47.112Z,8.95
2022-08-28T07:36:47.045Z,8.95
2022-08-28T07:37:47.024Z,8.95
2022-08-28T07:38:47.044Z,8.75
2022-08-28T07:39:47.014Z,9.34
2022-08-28T07:40:47.005Z,8.15
2022-08-28T07:41:46.984Z,8.75
2022-08-28T07:42:46.985Z,9.34
2022-08-28T07:43:46.954Z,8.95
2022-08-28T07:44:46.965Z,7.95
2022-08-28T07:45:47.036Z,9.15
2022-08-28T07:46:46.936Z,9.94
2022-08-28T07:47:46.931Z,7.95
2022-08-28T07:48:46.933Z,9.34
2022-08-28T07:49:46.924Z,10.34
2022-08-28T07:50:46.983Z,8.95
2022-08-28T07:51:47.233Z,9.15
2022-08-28T07:52:47.016Z,8.55
2022-08-28T07:53:46.927Z,9.15
2022-08-28T07:54:46.915Z,8.95
2022-08-28T07:55:46.895Z,8.35
2022-08-28T07:56:46.888Z,8.75
2022-08-28T07:57:46.849Z,7.75
2022-08-28T07:58:46.850Z,8.95
2022-08-28T07:59:46.865Z,8.55
2022-08-28T08:00:46.846Z,8.95
2022-08-28T08:01:47.050Z,8.55
2022-08-28T08:02:46.831Z,9.15
2022-08-28T08:03:46.851Z,9.34
2022-08-28T08:04:46.843Z,8.95
2022-08-28T08:05:46.798Z,7.75
2022-08-28T08:06:46.763Z,8.75
2022-08-28T08:07:46.862Z,7.95
2022-08-28T08:08:46.762Z,8.35
2022-08-28T08:09:46.758Z,8.35
2022-08-28T08:10:46.738Z,9.15
2022-08-28T08:11:46.664Z,8.75
2022-08-28T08:12:46.661Z,7.75
2022-08-28T08:13:46.625Z,8.95
2022-08-28T08:14:46.685Z,8.35
2022-08-28T08:15:46.633Z,8.95
2022-08-28T08:16:46.667Z,8.75
2022-08-28T08:17:46.723Z,8.95
2022-08-28T08:18:46.678Z,9.34
2022-08-28T08:19:46.581Z,7.75
2022-08-28T08:20:46.610Z,9.34
2022-08-28T08:21:46.580Z,9.34
2022-08-28T08:22:46.532Z,8.95
2022-08-28T08:23:46.517Z,5.77
2022-08-28T08:24:46.518Z,8.35
2022-08-28T08:25:46.529Z,9.54
2022-08-28T08:26:56.571Z,8.95
2022-08-28T08:27:47.484Z,8.75
2022-08-28T08:28:46.489Z,7.55
2022-08-28T08:29:46.458Z,8.55
2022-08-28T08:30:46.463Z,7.95
2022-08-28T08:31:46.430Z,7.95
2022-08-28T08:32:46.457Z,9.15
2022-08-28T08:33:46.455Z,7.95
2022-08-28T08:34:46.438Z,7.95
2022-08-28T08:35:46.378Z,7.75
2022-08-28T08:36:46.380Z,7.75
2022-08-28T08:37:46.362Z,8.15
2022-08-28T08:38:46.399Z,7.95
2022-08-28T08:39:46.369Z,6.76
2022-08-28T08:40:46.401Z,7.16
2022-08-28T08:41:46.319Z,8.15
2022-08-28T08:42:46.320Z,9.54
2022-08-28T08:43:46.304Z,8.15
2022-08-28T08:44:46.342Z,8.15
2022-08-28T08:45:46.270Z,7.75
2022-08-28T08:46:46.269Z,7.75
2022-08-28T08:47:46.259Z,8.15
2022-08-28T08:48:46.244Z,7.55
2022-08-28T08:49:46.252Z,6.96
2022-08-28T08:50:46.224Z,8.35
2022-08-28T08:51:46.248Z,7.55
2022-08-28T08:52:46.208Z,8.15
2022-08-28T08:53:46.192Z,8.35
2022-08-28T08:54:46.240Z,7.95
2022-08-28T08:55:46.209Z,3.58
2022-08-28T08:56:46.277Z,7.95
2022-08-28T08:57:49.317Z,7.95
2022-08-28T08:58:46.188Z,8.75
2022-08-28T08:59:46.192Z,8.15
2022-08-28T09:00:46.164Z,7.95
2022-08-28T09:01:46.219Z,9.34
2022-08-28T09:02:46.174Z,6.56
2022-08-28T09:03:46.201Z,7.55
2022-08-28T09:04:46.167Z,8.55
2022-08-28T09:05:46.114Z,8.55
2022-08-28T09:06:46.104Z,7.95
2022-08-28T09:07:48.256Z,8.35
2022-08-28T09:08:47.083Z,7.55
2022-08-28T09:09:46.102Z,7.75
2022-08-28T09:10:46.184Z,6.96
2022-08-28T09:11:46.020Z,7.95
2022-08-28T09:12:47.002Z,7.95
2022-08-28T09:13:46.042Z,7.36
2022-08-28T09:14:46.174Z,7.55
2022-08-28T09:15:48.814Z,7.75
2022-08-28T09:16:45.991Z,7.95
2022-08-28T09:17:45.980Z,8.35
2022-08-28T09:18:45.953Z,7.55
2022-08-28T09:19:45.953Z,7.55
2022-08-28T09:20:45.943Z,8.15
2022-08-28T09:21:45.959Z,7.75
2022-08-28T09:22:45.968Z,7.36
2022-08-28T09:23:45.924Z,7.16
2022-08-28T09:24:45.987Z,6.96
2022-08-28T09:25:45.876Z,8.35
2022-08-28T09:26:45.915Z,7.75
2022-08-28T09:27:45.855Z,7.36
2022-08-28T09:28:45.887Z,8.95
2022-08-28T09:29:45.946Z,7.55
2022-08-28T09:30:45.845Z,7.75
2022-08-28T09:31:45.812Z,7.75
2022-08-28T09:32:45.815Z,8.15
2022-08-28T09:33:45.802Z,7.95
2022-08-28T09:34:45.821Z,7.75
2022-08-28T09:35:45.775Z,7.55
2022-08-28T09:36:45.809Z,8.15
2022-08-28T09:37:45.735Z,8.95
2022-08-28T09:38:45.736Z,7.55
2022-08-28T09:39:48.838Z,7.55
2022-08-28T09:40:45.728Z,7.55
2022-08-28T09:41:45.706Z,9.15
2022-08-28T09:42:45.687Z,8.55
2022-08-28T09:43:45.681Z,6.96
2022-08-28T09:44:45.667Z,7.75
2022-08-28T09:45:46.676Z,7.75
2022-08-28T09:46:45.709Z,8.75
2022-08-28T09:47:46.240Z,7.75
2022-08-28T09:48:45.886Z,7.95
2022-08-28T09:49:45.617Z,8.55
2022-08-28T09:50:45.656Z,7.55
2022-08-28T09:51:45.621Z,7.55
2022-08-28T09:52:45.588Z,7.95
2022-08-28T09:53:45.590Z,7.36
2022-08-28T09:54:45.608Z,8.75
2022-08-28T09:55:45.548Z,6.96
2022-08-28T09:56:45.560Z,7.16
2022-08-28T09:57:45.509Z,6.96
2022-08-28T09:58:45.513Z,8.35
2022-08-28T09:59:45.525Z,6.76
2022-08-28T10:00:45.510Z,8.15
2022-08-28T10:01:45.572Z,7.16
2022-08-28T10:02:45.469Z,7.36
2022-08-28T10:03:45.462Z,7.55
2022-08-28T10:04:45.545Z,6.96
2022-08-28T10:05:45.460Z,7.95
2022-08-28T10:06:45.443Z,7.75
2022-08-28T10:07:45.419Z,8.75
2022-08-28T10:08:45.402Z,8.55
2022-08-28T10:09:47.707Z,7.95
2022-08-28T10:10:45.410Z,9.15
2022-08-28T10:11:45.379Z,9.15
2022-08-28T10:12:45.410Z,8.35
2022-08-28T10:13:45.378Z,8.15
2022-08-28T10:14:45.373Z,8.15
2022-08-28T10:15:45.401Z,7.95
2022-08-28T10:16:45.316Z,8.15
2022-08-28T10:17:45.298Z,7.36
2022-08-28T10:18:45.261Z,8.55
2022-08-28T10:19:45.261Z,7.75
2022-08-28T10:20:45.265Z,8.55
2022-08-28T10:21:45.243Z,7.75
2022-08-28T10:22:45.256Z,9.34
2022-08-28T10:23:45.213Z,8.55
2022-08-28T10:24:45.223Z,8.35
2022-08-28T10:25:45.269Z,7.55
2022-08-28T10:26:45.212Z,8.35
2022-08-28T10:27:45.227Z,7.95
2022-08-28T10:28:45.213Z,8.15
2022-08-28T10:29:45.183Z,8.15
2022-08-28T10:30:45.240Z,7.95
2022-08-28T10:31:45.153Z,8.35
2022-08-28T10:32:45.150Z,8.35
2022-08-28T10:33:45.163Z,8.15
2022-08-28T10:34:45.113Z,8.55
2022-08-28T10:35:45.133Z,7.55
2022-08-28T10:36:45.105Z,8.75
2022-08-28T10:37:45.096Z,8.35
2022-08-28T10:38:49.488Z,7.95
2022-08-28T10:39:46.063Z,7.95
2022-08-28T10:40:45.055Z,8.35
2022-08-28T10:41:45.015Z,2.98
2022-08-28T10:42:45.016Z,9.15
2022-08-28T10:43:45.262Z,9.15
2022-08-28T10:44:45.255Z,8.35
2022-08-28T10:45:46.180Z,9.74
2022-08-28T10:46:45.020Z,3.98
2022-08-28T10:47:44.967Z,8.35
2022-08-28T10:48:45.014Z,9.15
2022-08-28T10:49:44.967Z,7.36
2022-08-28T10:50:44.979Z,7.55
2022-08-28T10:51:44.929Z,8.35
2022-08-28T10:52:44.958Z,8.55
2022-08-28T10:53:44.917Z,8.55
2022-08-28T10:54:44.948Z,8.55
2022-08-28T10:55:44.943Z,8.15
2022-08-28T10:56:44.881Z,8.75
2022-08-28T10:57:45.076Z,8.55
2022-08-28T10:58:44.924Z,8.75
2022-08-28T10:59:44.858Z,8.15
2022-08-28T11:00:44.894Z,7.95
2022-08-28T11:01:44.925Z,8.35
2022-08-28T11:02:45.030Z,8.35
2022-08-28T11:03:44.794Z,8.35
2022-08-28T11:04:44.798Z,7.36
2022-08-28T11:05:53.430Z,7.75
2022-08-28T11:06:45.827Z,5.37
2022-08-28T11:07:44.834Z,8.15
2022-08-28T11:08:44.769Z,8.75
2022-08-28T11:09:44.805Z,8.15
2022-08-28T11:10:44.732Z,8.15
2022-08-28T11:11:44.759Z,8.55
2022-08-28T11:12:44.806Z,7.55
2022-08-28T11:13:44.683Z,8.55
2022-08-28T11:14:48.089Z,8.35
2022-08-28T11:15:44.643Z,8.35
2022-08-28T11:16:44.728Z,9.54
2022-08-28T11:17:44.648Z,9.15
2022-08-28T11:18:44.632Z,8.35
2022-08-28T11:19:47.073Z,7.55
2022-08-28T11:20:45.631Z,9.54
2022-08-28T11:21:44.633Z,8.75
2022-08-28T11:22:44.605Z,8.15
2022-08-28T11:23:44.591Z,8.15
2022-08-28T11:24:44.600Z,8.35
2022-08-28T11:25:44.691Z,8.35
2022-08-28T11:26:44.593Z,6.76
2022-08-28T11:27:44.551Z,7.75
2022-08-28T11:28:44.534Z,9.94
2022-08-28T11:29:44.543Z,8.15
2022-08-28T11:30:44.550Z,8.55
2022-08-28T11:31:44.527Z,8.35
2022-08-28T11:32:47.038Z,9.34
2022-08-28T11:33:44.480Z,8.55
2022-08-28T11:34:44.476Z,7.75
2022-08-28T11:35:44.463Z,7.36
2022-08-28T11:36:44.445Z,8.55
2022-08-28T11:37:44.444Z,8.15
2022-08-28T11:38:44.436Z,7.95
2022-08-28T11:39:44.454Z,8.55
2022-08-28T11:40:44.414Z,7.95
2022-08-28T11:41:44.439Z,8.35
2022-08-28T11:42:44.467Z,7.75
2022-08-28T11:43:44.375Z,7.95
2022-08-28T11:44:44.396Z,7.95
2022-08-28T11:45:45.707Z,8.55
2022-08-28T11:46:44.560Z,8.75
2022-08-28T11:47:44.340Z,7.16
2022-08-28T11:48:44.339Z,8.55
2022-08-28T11:49:44.292Z,8.55
2022-08-28T11:50:44.259Z,7.75
2022-08-28T11:51:44.368Z,7.55
2022-08-28T11:52:44.328Z,8.15
2022-08-28T11:53:44.280Z,8.75
2022-08-28T11:54:44.223Z,9.34
2022-08-28T11:55:44.236Z,8.15
2022-08-28T11:56:44.259Z,6.76
2022-08-28T11:57:44.216Z,7.75
2022-08-28T11:58:44.313Z,7.95
2022-08-28T11:59:44.253Z,8.35
2022-08-28T12:00:44.180Z,8.55
2022-08-28T12:01:44.171Z,8.95
2022-08-28T12:02:44.301Z,7.55
2022-08-28T12:03:44.131Z,7.95
2022-08-28T12:04:44.878Z,8.75
2022-08-28T12:05:44.236Z,7.16
2022-08-28T12:06:44.206Z,7.36
2022-08-28T12:07:44.143Z,8.15
2022-08-28T12:08:44.115Z,8.15
2022-08-28T12:09:44.103Z,8.15
2022-08-28T12:10:44.083Z,7.95
2022-08-28T12:11:44.114Z,6.36
2022-08-28T12:12:44.103Z,7.95
2022-08-28T12:13:44.077Z,7.75
2022-08-28T12:14:44.034Z,7.95
2022-08-28T12:15:44.072Z,8.15
2022-08-28T12:16:44.034Z,8.35
2022-08-28T12:17:43.977Z,7.36
2022-08-28T12:18:44.014Z,8.15
2022-08-28T12:19:56.057Z,7.75
2022-08-28T12:20:45.049Z,8.15
2022-08-28T12:21:44.489Z,8.35
2022-08-28T12:22:43.935Z,8.55
2022-08-28T12:23:43.936Z,8.15
2022-08-28T12:24:43.942Z,7.16
2022-08-28T12:25:43.977Z,8.35
2022-08-28T12:26:43.937Z,8.95
2022-08-28T12:27:43.913Z,8.15
2022-08-28T12:28:43.868Z,8.15
2022-08-28T12:29:43.867Z,8.75
2022-08-28T12:30:43.922Z,7.95
2022-08-28T12:31:43.883Z,8.55
2022-08-28T12:32:43.888Z,7.95
2022-08-28T12:33:43.840Z,8.15
2022-08-28T12:34:43.837Z,8.75
2022-08-28T12:35:44.066Z,8.95
2022-08-28T12:36:43.821Z,8.15
2022-08-28T12:37:52.941Z,7.36
2022-08-28T12:38:44.803Z,7.95
2022-08-28T12:39:43.821Z,8.35
2022-08-28T12:40:43.876Z,7.55
2022-08-28T12:41:43.758Z,7.55
2022-08-28T12:42:43.729Z,8.75
2022-08-28T12:43:46.756Z,8.75
2022-08-28T12:44:43.775Z,8.55
2022-08-28T12:45:43.789Z,8.35
2022-08-28T12:46:43.755Z,7.95
2022-08-28T12:47:43.722Z,8.35
2022-08-28T12:48:43.774Z,7.95
2022-08-28T12:49:43.689Z,8.35
2022-08-28T12:50:43.662Z,7.36
2022-08-28T12:51:43.862Z,8.15
2022-08-28T12:52:43.805Z,6.96
2022-08-28T12:53:43.641Z,7.95
2022-08-28T12:54:43.610Z,8.15
2022-08-28T12:55:43.632Z,8.15
2022-08-28T12:56:43.656Z,8.35
2022-08-28T12:57:43.622Z,8.75
2022-08-28T12:58:43.620Z,8.35
2022-08-28T12:59:43.596Z,8.55
2022-08-28T13:00:43.577Z,8.15
2022-08-28T13:01:43.691Z,8.55
2022-08-28T13:02:46.507Z,8.15
2022-08-28T13:03:45.026Z,8.35
2022-08-28T13:04:43.575Z,8.55